sensor_id;sensor_type;location;lat;lon;timestamp;P1;durP1;ratioP1;P2;durP2;ratioP2
20697;SDS011;10508;50.956;4.640;2023-09-12T00:00:47;14.13;;;8.10;;
20697;SDS011;10508;50.956;4.640;2023-09-12T00:03:17;18.23;;;8.20;;
20697;SDS011;10508;50.956;4.640;2023-09-12T00:05:51;15.52;;;8.13;;
20697;SDS011;10508;50.956;4.640;2023-09-12T00:08:19;18.88;;;8.38;;
20697;SDS011;10508;50.956;4.640;2023-09-12T00:10:46;13.48;;;8.50;;
20697;SDS011;10508;50.956;4.640;2023-09-12T00:13:13;12.85;;;6.85;;
20697;SDS011;10508;50.956;4.640;2023-09-12T00:15:41;13.60;;;7.47;;
20697;SDS011;10508;50.956;4.640;2023-09-12T00:18:08;14.57;;;7.72;;
20697;SDS011;10508;50.956;4.640;2023-09-12T00:20:35;17.73;;;8.80;;
20697;SDS011;10508;50.956;4.640;2023-09-12T00:23:02;11.65;;;7.18;;
20697;SDS011;10508;50.956;4.640;2023-09-12T00:25:31;15.95;;;7.63;;
20697;SDS011;10508;50.956;4.640;2023-09-12T00:28:00;14.10;;;7.75;;
20697;SDS011;10508;50.956;4.640;2023-09-12T00:30:29;16.63;;;8.32;;
20697;SDS011;10508;50.956;4.640;2023-09-12T00:32:57;22.95;;;9.02;;
20697;SDS011;10508;50.956;4.640;2023-09-12T00:35:25;16.98;;;8.25;;
20697;SDS011;10508;50.956;4.640;2023-09-12T00:37:54;19.75;;;8.45;;
20697;SDS011;10508;50.956;4.640;2023-09-12T00:40:21;20.38;;;9.05;;
20697;SDS011;10508;50.956;4.640;2023-09-12T00:42:49;14.90;;;8.45;;
20697;SDS011;10508;50.956;4.640;2023-09-12T00:45:16;16.15;;;9.23;;
20697;SDS011;10508;50.956;4.640;2023-09-12T00:47:43;18.10;;;8.45;;
20697;SDS011;10508;50.956;4.640;2023-09-12T00:50:11;18.02;;;9.52;;
20697;SDS011;10508;50.956;4.640;2023-09-12T00:52:38;19.40;;;8.88;;
20697;SDS011;10508;50.956;4.640;2023-09-12T00:55:06;13.57;;;8.45;;
20697;SDS011;10508;50.956;4.640;2023-09-12T00:57:33;10.68;;;7.15;;
20697;SDS011;10508;50.956;4.640;2023-09-12T01:00:02;12.90;;;7.50;;
20697;SDS011;10508;50.956;4.640;2023-09-12T01:02:42;13.52;;;7.88;;
20697;SDS011;10508;50.956;4.640;2023-09-12T01:05:10;16.90;;;7.88;;
20697;SDS011;10508;50.956;4.640;2023-09-12T01:07:37;17.52;;;8.52;;
20697;SDS011;10508;50.956;4.640;2023-09-12T01:10:05;10.85;;;6.97;;
20697;SDS011;10508;50.956;4.640;2023-09-12T01:12:32;16.15;;;8.05;;
20697;SDS011;10508;50.956;4.640;2023-09-12T01:15:00;11.73;;;7.82;;
20697;SDS011;10508;50.956;4.640;2023-09-12T01:17:31;13.10;;;8.07;;
20697;SDS011;10508;50.956;4.640;2023-09-12T01:19:58;16.05;;;8.50;;
20697;SDS011;10508;50.956;4.640;2023-09-12T01:27:32;14.43;;;8.52;;
20697;SDS011;10508;50.956;4.640;2023-09-12T01:30:02;14.85;;;7.72;;
20697;SDS011;10508;50.956;4.640;2023-09-12T01:32:29;15.77;;;7.70;;
20697;SDS011;10508;50.956;4.640;2023-09-12T01:34:58;14.15;;;7.28;;
20697;SDS011;10508;50.956;4.640;2023-09-12T01:37:28;11.48;;;6.78;;
20697;SDS011;10508;50.956;4.640;2023-09-12T01:39:55;10.13;;;6.32;;
20697;SDS011;10508;50.956;4.640;2023-09-12T01:42:23;11.82;;;6.50;;
20697;SDS011;10508;50.956;4.640;2023-09-12T01:44:56;12.52;;;7.43;;
20697;SDS011;10508;50.956;4.640;2023-09-12T01:47:26;10.05;;;5.97;;
20697;SDS011;10508;50.956;4.640;2023-09-12T01:49:56;14.30;;;6.30;;
20697;SDS011;10508;50.956;4.640;2023-09-12T01:52:25;12.77;;;6.82;;
20697;SDS011;10508;50.956;4.640;2023-09-12T01:54:54;17.15;;;7.50;;
20697;SDS011;10508;50.956;4.640;2023-09-12T01:57:22;14.55;;;7.35;;
20697;SDS011;10508;50.956;4.640;2023-09-12T01:59:52;11.40;;;5.80;;
20697;SDS011;10508;50.956;4.640;2023-09-12T02:02:19;10.00;;;5.90;;
20697;SDS011;10508;50.956;4.640;2023-09-12T02:04:51;7.45;;;4.72;;
20697;SDS011;10508;50.956;4.640;2023-09-12T02:07:21;7.35;;;4.88;;
20697;SDS011;10508;50.956;4.640;2023-09-12T02:09:50;8.68;;;5.60;;
20697;SDS011;10508;50.956;4.640;2023-09-12T02:12:18;12.50;;;5.90;;
20697;SDS011;10508;50.956;4.640;2023-09-12T02:14:45;8.80;;;5.45;;
20697;SDS011;10508;50.956;4.640;2023-09-12T02:17:13;8.32;;;5.03;;
20697;SDS011;10508;50.956;4.640;2023-09-12T02:19:40;9.80;;;5.68;;
20697;SDS011;10508;50.956;4.640;2023-09-12T02:22:08;14.38;;;6.70;;
20697;SDS011;10508;50.956;4.640;2023-09-12T02:24:35;12.82;;;8.07;;
20697;SDS011;10508;50.956;4.640;2023-09-12T02:27:03;11.68;;;6.55;;
20697;SDS011;10508;50.956;4.640;2023-09-12T02:29:31;19.67;;;7.38;;
20697;SDS011;10508;50.956;4.640;2023-09-12T02:31:59;12.68;;;8.13;;
20697;SDS011;10508;50.956;4.640;2023-09-12T02:34:26;15.38;;;6.28;;
20697;SDS011;10508;50.956;4.640;2023-09-12T02:36:54;9.38;;;5.60;;
20697;SDS011;10508;50.956;4.640;2023-09-12T02:39:21;13.73;;;6.30;;
20697;SDS011;10508;50.956;4.640;2023-09-12T02:41:49;9.45;;;5.63;;
20697;SDS011;10508;50.956;4.640;2023-09-12T02:44:16;7.72;;;5.13;;
20697;SDS011;10508;50.956;4.640;2023-09-12T02:46:44;8.15;;;5.47;;
20697;SDS011;10508;50.956;4.640;2023-09-12T02:49:13;8.68;;;5.65;;
20697;SDS011;10508;50.956;4.640;2023-09-12T02:51:42;14.40;;;7.10;;
20697;SDS011;10508;50.956;4.640;2023-09-12T02:54:10;9.65;;;5.30;;
20697;SDS011;10508;50.956;4.640;2023-09-12T02:56:39;10.20;;;6.50;;
20697;SDS011;10508;50.956;4.640;2023-09-12T02:59:08;13.15;;;6.75;;
20697;SDS011;10508;50.956;4.640;2023-09-12T03:01:36;15.27;;;7.80;;
20697;SDS011;10508;50.956;4.640;2023-09-12T03:04:03;18.75;;;8.05;;
20697;SDS011;10508;50.956;4.640;2023-09-12T03:06:31;13.88;;;7.72;;
20697;SDS011;10508;50.956;4.640;2023-09-12T03:08:59;16.05;;;8.65;;
20697;SDS011;10508;50.956;4.640;2023-09-12T03:11:26;12.52;;;7.30;;
20697;SDS011;10508;50.956;4.640;2023-09-12T03:13:54;14.00;;;6.85;;
20697;SDS011;10508;50.956;4.640;2023-09-12T03:16:23;19.08;;;8.25;;
20697;SDS011;10508;50.956;4.640;2023-09-12T03:18:51;17.90;;;7.07;;
20697;SDS011;10508;50.956;4.640;2023-09-12T03:21:18;18.63;;;8.23;;
20697;SDS011;10508;50.956;4.640;2023-09-12T03:23:46;13.27;;;7.88;;
20697;SDS011;10508;50.956;4.640;2023-09-12T03:26:14;14.70;;;8.70;;
20697;SDS011;10508;50.956;4.640;2023-09-12T03:28:41;15.40;;;8.13;;
20697;SDS011;10508;50.956;4.640;2023-09-12T03:31:09;22.42;;;9.60;;
20697;SDS011;10508;50.956;4.640;2023-09-12T03:33:38;23.25;;;8.95;;
20697;SDS011;10508;50.956;4.640;2023-09-12T03:36:06;17.58;;;8.93;;
20697;SDS011;10508;50.956;4.640;2023-09-12T03:38:34;20.13;;;10.32;;
20697;SDS011;10508;50.956;4.640;2023-09-12T03:41:03;15.77;;;9.18;;
20697;SDS011;10508;50.956;4.640;2023-09-12T03:43:32;18.00;;;9.13;;
20697;SDS011;10508;50.956;4.640;2023-09-12T03:46:00;17.73;;;9.40;;
20697;SDS011;10508;50.956;4.640;2023-09-12T03:48:28;23.75;;;9.20;;
20697;SDS011;10508;50.956;4.640;2023-09-12T03:50:56;15.65;;;8.77;;
20697;SDS011;10508;50.956;4.640;2023-09-12T03:53:24;19.65;;;10.02;;
20697;SDS011;10508;50.956;4.640;2023-09-12T03:55:53;20.98;;;10.45;;
20697;SDS011;10508;50.956;4.640;2023-09-12T03:58:20;19.88;;;8.77;;
20697;SDS011;10508;50.956;4.640;2023-09-12T04:00:48;17.60;;;10.35;;
20697;SDS011;10508;50.956;4.640;2023-09-12T04:03:15;20.90;;;10.23;;
20697;SDS011;10508;50.956;4.640;2023-09-12T04:05:46;20.15;;;10.23;;
20697;SDS011;10508;50.956;4.640;2023-09-12T04:08:13;20.17;;;11.25;;
20697;SDS011;10508;50.956;4.640;2023-09-12T04:10:41;27.80;;;12.07;;
20697;SDS011;10508;50.956;4.640;2023-09-12T04:13:09;26.13;;;11.18;;
20697;SDS011;10508;50.956;4.640;2023-09-12T04:15:37;31.45;;;14.23;;
20697;SDS011;10508;50.956;4.640;2023-09-12T04:18:06;30.15;;;13.70;;
20697;SDS011;10508;50.956;4.640;2023-09-12T04:20:35;27.05;;;12.93;;
20697;SDS011;10508;50.956;4.640;2023-09-12T04:23:04;29.98;;;12.75;;
20697;SDS011;10508;50.956;4.640;2023-09-12T04:25:33;28.20;;;12.48;;
20697;SDS011;10508;50.956;4.640;2023-09-12T04:28:02;25.75;;;12.15;;
20697;SDS011;10508;50.956;4.640;2023-09-12T04:30:30;23.83;;;11.75;;
20697;SDS011;10508;50.956;4.640;2023-09-12T04:32:58;26.15;;;11.85;;
20697;SDS011;10508;50.956;4.640;2023-09-12T04:35:26;28.30;;;13.20;;
20697;SDS011;10508;50.956;4.640;2023-09-12T04:37:55;25.92;;;13.32;;
20697;SDS011;10508;50.956;4.640;2023-09-12T04:40:24;35.47;;;13.68;;
20697;SDS011;10508;50.956;4.640;2023-09-12T04:42:53;29.67;;;12.50;;
20697;SDS011;10508;50.956;4.640;2023-09-12T04:45:22;24.75;;;12.40;;
20697;SDS011;10508;50.956;4.640;2023-09-12T04:47:51;25.38;;;12.80;;
20697;SDS011;10508;50.956;4.640;2023-09-12T04:50:18;25.02;;;12.48;;
20697;SDS011;10508;50.956;4.640;2023-09-12T04:52:46;26.27;;;13.25;;
20697;SDS011;10508;50.956;4.640;2023-09-12T04:55:13;31.50;;;13.38;;
20697;SDS011;10508;50.956;4.640;2023-09-12T04:57:41;29.85;;;13.35;;
20697;SDS011;10508;50.956;4.640;2023-09-12T05:00:09;24.75;;;12.15;;
20697;SDS011;10508;50.956;4.640;2023-09-12T05:02:37;29.42;;;12.30;;
20697;SDS011;10508;50.956;4.640;2023-09-12T05:05:04;28.63;;;12.40;;
20697;SDS011;10508;50.956;4.640;2023-09-12T05:07:32;26.48;;;12.45;;
20697;SDS011;10508;50.956;4.640;2023-09-12T05:09:59;25.20;;;12.27;;
20697;SDS011;10508;50.956;4.640;2023-09-12T05:12:27;22.83;;;11.15;;
20697;SDS011;10508;50.956;4.640;2023-09-12T05:14:54;30.45;;;12.77;;
20697;SDS011;10508;50.956;4.640;2023-09-12T05:17:21;22.80;;;12.50;;
20697;SDS011;10508;50.956;4.640;2023-09-12T05:19:48;29.35;;;13.10;;
20697;SDS011;10508;50.956;4.640;2023-09-12T05:22:15;24.00;;;12.52;;
20697;SDS011;10508;50.956;4.640;2023-09-12T05:24:42;24.98;;;12.52;;
20697;SDS011;10508;50.956;4.640;2023-09-12T05:27:10;30.08;;;12.38;;
20697;SDS011;10508;50.956;4.640;2023-09-12T05:29:37;27.85;;;13.00;;
20697;SDS011;10508;50.956;4.640;2023-09-12T05:32:04;25.83;;;12.90;;
20697;SDS011;10508;50.956;4.640;2023-09-12T05:34:31;26.35;;;13.02;;
20697;SDS011;10508;50.956;4.640;2023-09-12T05:36:58;25.27;;;12.70;;
20697;SDS011;10508;50.956;4.640;2023-09-12T05:39:25;29.42;;;12.60;;
20697;SDS011;10508;50.956;4.640;2023-09-12T05:41:52;29.48;;;13.57;;
20697;SDS011;10508;50.956;4.640;2023-09-12T05:44:19;18.80;;;10.30;;
20697;SDS011;10508;50.956;4.640;2023-09-12T05:46:47;26.15;;;12.85;;
20697;SDS011;10508;50.956;4.640;2023-09-12T05:49:14;23.08;;;11.15;;
20697;SDS011;10508;50.956;4.640;2023-09-12T05:51:41;26.60;;;12.25;;
20697;SDS011;10508;50.956;4.640;2023-09-12T05:54:09;26.15;;;12.15;;
20697;SDS011;10508;50.956;4.640;2023-09-12T05:56:38;22.70;;;11.18;;
20697;SDS011;10508;50.956;4.640;2023-09-12T05:59:06;24.98;;;11.30;;
20697;SDS011;10508;50.956;4.640;2023-09-12T06:01:33;23.13;;;11.52;;
20697;SDS011;10508;50.956;4.640;2023-09-12T06:04:00;23.45;;;13.05;;
20697;SDS011;10508;50.956;4.640;2023-09-12T06:06:27;31.48;;;14.52;;
20697;SDS011;10508;50.956;4.640;2023-09-12T06:08:54;31.20;;;14.13;;
20697;SDS011;10508;50.956;4.640;2023-09-12T06:11:23;31.70;;;13.82;;
20697;SDS011;10508;50.956;4.640;2023-09-12T06:13:50;32.15;;;14.50;;
20697;SDS011;10508;50.956;4.640;2023-09-12T06:16:17;30.38;;;13.88;;
20697;SDS011;10508;50.956;4.640;2023-09-12T06:18:44;31.77;;;13.90;;
20697;SDS011;10508;50.956;4.640;2023-09-12T06:21:13;30.33;;;14.38;;
20697;SDS011;10508;50.956;4.640;2023-09-12T06:23:40;31.42;;;13.20;;
20697;SDS011;10508;50.956;4.640;2023-09-12T06:26:07;31.92;;;14.85;;
20697;SDS011;10508;50.956;4.640;2023-09-12T06:28:34;33.08;;;14.35;;
20697;SDS011;10508;50.956;4.640;2023-09-12T06:31:01;46.00;;;16.60;;
20697;SDS011;10508;50.956;4.640;2023-09-12T06:33:29;35.60;;;17.08;;
20697;SDS011;10508;50.956;4.640;2023-09-12T06:35:56;43.15;;;19.20;;
20697;SDS011;10508;50.956;4.640;2023-09-12T06:38:23;34.38;;;14.63;;
20697;SDS011;10508;50.956;4.640;2023-09-12T06:40:50;29.55;;;14.90;;
20697;SDS011;10508;50.956;4.640;2023-09-12T06:43:18;30.55;;;14.15;;
20697;SDS011;10508;50.956;4.640;2023-09-12T06:45:45;34.88;;;15.10;;
20697;SDS011;10508;50.956;4.640;2023-09-12T06:48:13;36.50;;;17.67;;
20697;SDS011;10508;50.956;4.640;2023-09-12T06:50:41;39.95;;;15.65;;
20697;SDS011;10508;50.956;4.640;2023-09-12T06:53:08;35.42;;;17.23;;
20697;SDS011;10508;50.956;4.640;2023-09-12T06:55:36;37.40;;;17.08;;
20697;SDS011;10508;50.956;4.640;2023-09-12T06:58:03;42.95;;;19.80;;
20697;SDS011;10508;50.956;4.640;2023-09-12T07:00:30;44.80;;;20.38;;
20697;SDS011;10508;50.956;4.640;2023-09-12T07:02:58;48.92;;;19.77;;
20697;SDS011;10508;50.956;4.640;2023-09-12T07:05:25;44.95;;;19.75;;
20697;SDS011;10508;50.956;4.640;2023-09-12T07:07:52;39.28;;;18.77;;
20697;SDS011;10508;50.956;4.640;2023-09-12T07:10:19;44.17;;;19.85;;
20697;SDS011;10508;50.956;4.640;2023-09-12T07:12:47;53.10;;;21.83;;
20697;SDS011;10508;50.956;4.640;2023-09-12T07:15:16;50.75;;;22.92;;
20697;SDS011;10508;50.956;4.640;2023-09-12T07:17:43;56.15;;;22.85;;
20697;SDS011;10508;50.956;4.640;2023-09-12T07:20:10;64.15;;;24.90;;
20697;SDS011;10508;50.956;4.640;2023-09-12T07:22:38;54.95;;;22.83;;
20697;SDS011;10508;50.956;4.640;2023-09-12T07:25:07;59.53;;;22.60;;
20697;SDS011;10508;50.956;4.640;2023-09-12T07:27:36;63.97;;;24.90;;
20697;SDS011;10508;50.956;4.640;2023-09-12T07:30:04;51.45;;;23.40;;
20697;SDS011;10508;50.956;4.640;2023-09-12T07:32:31;55.53;;;23.48;;
20697;SDS011;10508;50.956;4.640;2023-09-12T07:34:59;55.47;;;23.70;;
20697;SDS011;10508;50.956;4.640;2023-09-12T07:37:26;55.65;;;22.73;;
20697;SDS011;10508;50.956;4.640;2023-09-12T07:39:53;52.50;;;23.33;;
20697;SDS011;10508;50.956;4.640;2023-09-12T07:42:23;51.58;;;23.52;;
20697;SDS011;10508;50.956;4.640;2023-09-12T07:44:51;56.42;;;24.50;;
20697;SDS011;10508;50.956;4.640;2023-09-12T07:47:18;47.50;;;21.17;;
20697;SDS011;10508;50.956;4.640;2023-09-12T07:49:52;56.88;;;24.02;;
20697;SDS011;10508;50.956;4.640;2023-09-12T07:52:19;57.22;;;24.27;;
20697;SDS011;10508;50.956;4.640;2023-09-12T07:54:48;55.25;;;23.08;;
20697;SDS011;10508;50.956;4.640;2023-09-12T07:57:18;57.42;;;22.05;;
20697;SDS011;10508;50.956;4.640;2023-09-12T07:59:46;48.92;;;22.23;;
20697;SDS011;10508;50.956;4.640;2023-09-12T08:02:13;46.53;;;21.00;;
20697;SDS011;10508;50.956;4.640;2023-09-12T08:04:41;51.67;;;21.63;;
20697;SDS011;10508;50.956;4.640;2023-09-12T08:07:08;49.47;;;21.60;;
20697;SDS011;10508;50.956;4.640;2023-09-12T08:12:19;46.80;;;21.80;;
20697;SDS011;10508;50.956;4.640;2023-09-12T08:14:46;46.63;;;20.60;;
20697;SDS011;10508;50.956;4.640;2023-09-12T08:17:14;48.67;;;20.88;;
20697;SDS011;10508;50.956;4.640;2023-09-12T08:19:41;49.95;;;21.33;;
20697;SDS011;10508;50.956;4.640;2023-09-12T08:22:09;45.97;;;20.95;;
20697;SDS011;10508;50.956;4.640;2023-09-12T08:24:36;51.40;;;22.50;;
20697;SDS011;10508;50.956;4.640;2023-09-12T08:27:07;47.50;;;21.08;;
20697;SDS011;10508;50.956;4.640;2023-09-12T08:29:34;41.10;;;19.80;;
20697;SDS011;10508;50.956;4.640;2023-09-12T08:32:02;44.00;;;21.10;;
20697;SDS011;10508;50.956;4.640;2023-09-12T08:34:29;51.70;;;21.92;;
20697;SDS011;10508;50.956;4.640;2023-09-12T08:36:56;50.03;;;20.45;;
20697;SDS011;10508;50.956;4.640;2023-09-12T08:39:24;49.05;;;21.08;;
20697;SDS011;10508;50.956;4.640;2023-09-12T08:41:52;42.25;;;21.05;;
20697;SDS011;10508;50.956;4.640;2023-09-12T08:44:19;49.90;;;21.40;;
20697;SDS011;10508;50.956;4.640;2023-09-12T08:46:47;42.95;;;19.88;;
20697;SDS011;10508;50.956;4.640;2023-09-12T08:49:14;42.70;;;19.20;;
20697;SDS011;10508;50.956;4.640;2023-09-12T08:51:41;42.35;;;20.58;;
20697;SDS011;10508;50.956;4.640;2023-09-12T08:54:09;47.50;;;20.67;;
20697;SDS011;10508;50.956;4.640;2023-09-12T08:56:38;39.92;;;18.20;;
20697;SDS011;10508;50.956;4.640;2023-09-12T08:59:07;49.08;;;21.00;;
20697;SDS011;10508;50.956;4.640;2023-09-12T09:01:35;35.58;;;17.63;;
20697;SDS011;10508;50.956;4.640;2023-09-12T09:04:04;34.00;;;16.63;;
20697;SDS011;10508;50.956;4.640;2023-09-12T09:06:32;41.70;;;18.35;;
20697;SDS011;10508;50.956;4.640;2023-09-12T09:09:02;30.95;;;16.33;;
20697;SDS011;10508;50.956;4.640;2023-09-12T09:11:31;37.75;;;17.52;;
20697;SDS011;10508;50.956;4.640;2023-09-12T09:14:00;32.88;;;15.77;;
20697;SDS011;10508;50.956;4.640;2023-09-12T09:16:28;34.42;;;16.00;;
20697;SDS011;10508;50.956;4.640;2023-09-12T09:18:56;33.03;;;15.18;;
20697;SDS011;10508;50.956;4.640;2023-09-12T09:21:30;27.05;;;13.80;;
20697;SDS011;10508;50.956;4.640;2023-09-12T09:23:58;27.35;;;12.60;;
20697;SDS011;10508;50.956;4.640;2023-09-12T09:26:40;27.70;;;12.00;;
20697;SDS011;10508;50.956;4.640;2023-09-12T09:29:13;37.35;;;14.23;;
20697;SDS011;10508;50.956;4.640;2023-09-12T09:31:41;29.88;;;14.35;;
20697;SDS011;10508;50.956;4.640;2023-09-12T09:34:15;29.05;;;13.63;;
20697;SDS011;10508;50.956;4.640;2023-09-12T09:36:50;24.08;;;11.50;;
20697;SDS011;10508;50.956;4.640;2023-09-12T09:39:20;23.35;;;11.10;;
20697;SDS011;10508;50.956;4.640;2023-09-12T09:41:48;20.27;;;10.80;;
20697;SDS011;10508;50.956;4.640;2023-09-12T09:44:15;25.13;;;11.95;;
20697;SDS011;10508;50.956;4.640;2023-09-12T09:46:43;25.33;;;12.00;;
20697;SDS011;10508;50.956;4.640;2023-09-12T09:49:10;18.13;;;9.68;;
20697;SDS011;10508;50.956;4.640;2023-09-12T09:51:41;17.98;;;9.77;;
20697;SDS011;10508;50.956;4.640;2023-09-12T09:54:08;22.05;;;12.02;;
20697;SDS011;10508;50.956;4.640;2023-09-12T09:56:47;24.90;;;12.55;;
20697;SDS011;10508;50.956;4.640;2023-09-12T09:59:17;24.10;;;10.70;;
20697;SDS011;10508;50.956;4.640;2023-09-12T10:01:45;32.40;;;14.25;;
20697;SDS011;10508;50.956;4.640;2023-09-12T10:04:12;29.27;;;12.80;;
20697;SDS011;10508;50.956;4.640;2023-09-12T10:06:39;25.63;;;14.07;;
20697;SDS011;10508;50.956;4.640;2023-09-12T10:09:10;29.75;;;13.88;;
20697;SDS011;10508;50.956;4.640;2023-09-12T10:11:39;25.50;;;12.50;;
20697;SDS011;10508;50.956;4.640;2023-09-12T10:14:06;20.75;;;10.07;;
20697;SDS011;10508;50.956;4.640;2023-09-12T10:16:34;25.55;;;12.27;;
20697;SDS011;10508;50.956;4.640;2023-09-12T10:21:32;26.55;;;12.23;;
20697;SDS011;10508;50.956;4.640;2023-09-12T10:24:01;27.90;;;12.70;;
20697;SDS011;10508;50.956;4.640;2023-09-12T10:26:31;23.90;;;11.80;;
20697;SDS011;10508;50.956;4.640;2023-09-12T10:28:58;17.67;;;11.55;;
20697;SDS011;10508;50.956;4.640;2023-09-12T10:31:26;23.73;;;12.50;;
20697;SDS011;10508;50.956;4.640;2023-09-12T10:33:53;24.92;;;11.88;;
20697;SDS011;10508;50.956;4.640;2023-09-12T10:36:20;24.67;;;12.90;;
20697;SDS011;10508;50.956;4.640;2023-09-12T10:38:49;21.70;;;12.32;;
20697;SDS011;10508;50.956;4.640;2023-09-12T10:41:17;30.30;;;13.25;;
20697;SDS011;10508;50.956;4.640;2023-09-12T10:43:45;20.02;;;10.90;;
20697;SDS011;10508;50.956;4.640;2023-09-12T10:46:17;18.50;;;10.95;;
20697;SDS011;10508;50.956;4.640;2023-09-12T10:48:44;21.17;;;11.45;;
20697;SDS011;10508;50.956;4.640;2023-09-12T10:51:11;22.20;;;11.07;;
20697;SDS011;10508;50.956;4.640;2023-09-12T10:53:38;23.17;;;11.35;;
20697;SDS011;10508;50.956;4.640;2023-09-12T10:56:14;18.77;;;9.27;;
20697;SDS011;10508;50.956;4.640;2023-09-12T11:01:37;24.85;;;11.27;;
20697;SDS011;10508;50.956;4.640;2023-09-12T11:06:50;22.95;;;10.05;;
20697;SDS011;10508;50.956;4.640;2023-09-12T11:09:18;19.42;;;10.57;;
20697;SDS011;10508;50.956;4.640;2023-09-12T11:12:07;18.63;;;10.85;;
20697;SDS011;10508;50.956;4.640;2023-09-12T11:14:33;17.75;;;8.77;;
20697;SDS011;10508;50.956;4.640;2023-09-12T11:19:43;17.98;;;9.02;;
20697;SDS011;10508;50.956;4.640;2023-09-12T11:22:27;13.65;;;8.70;;
20697;SDS011;10508;50.956;4.640;2023-09-12T11:24:56;18.90;;;8.23;;
20697;SDS011;10508;50.956;4.640;2023-09-12T11:27:24;18.83;;;7.85;;
20697;SDS011;10508;50.956;4.640;2023-09-12T11:29:52;13.65;;;7.65;;
20697;SDS011;10508;50.956;4.640;2023-09-12T11:32:29;17.02;;;8.75;;
20697;SDS011;10508;50.956;4.640;2023-09-12T11:34:57;14.10;;;7.15;;
20697;SDS011;10508;50.956;4.640;2023-09-12T11:37:26;17.33;;;7.60;;
20697;SDS011;10508;50.956;4.640;2023-09-12T11:39:55;12.63;;;7.10;;
20697;SDS011;10508;50.956;4.640;2023-09-12T11:42:25;11.50;;;6.35;;
20697;SDS011;10508;50.956;4.640;2023-09-12T11:44:53;13.63;;;6.78;;
20697;SDS011;10508;50.956;4.640;2023-09-12T11:47:20;13.15;;;7.45;;
20697;SDS011;10508;50.956;4.640;2023-09-12T11:49:48;17.23;;;7.07;;
20697;SDS011;10508;50.956;4.640;2023-09-12T11:52:15;13.25;;;7.68;;
20697;SDS011;10508;50.956;4.640;2023-09-12T11:54:44;10.45;;;6.15;;
20697;SDS011;10508;50.956;4.640;2023-09-12T11:57:13;14.18;;;7.47;;
20697;SDS011;10508;50.956;4.640;2023-09-12T11:59:42;12.90;;;8.23;;
20697;SDS011;10508;50.956;4.640;2023-09-12T12:02:11;14.38;;;6.97;;
20697;SDS011;10508;50.956;4.640;2023-09-12T12:04:39;13.77;;;7.10;;
20697;SDS011;10508;50.956;4.640;2023-09-12T12:07:07;10.07;;;5.60;;
20697;SDS011;10508;50.956;4.640;2023-09-12T12:09:35;15.40;;;8.77;;
20697;SDS011;10508;50.956;4.640;2023-09-12T12:12:04;13.48;;;7.85;;
20697;SDS011;10508;50.956;4.640;2023-09-12T12:14:33;17.45;;;9.43;;
20697;SDS011;10508;50.956;4.640;2023-09-12T12:17:09;14.57;;;8.93;;
20697;SDS011;10508;50.956;4.640;2023-09-12T12:19:36;15.70;;;9.07;;
20697;SDS011;10508;50.956;4.640;2023-09-12T12:22:06;14.23;;;7.97;;
20697;SDS011;10508;50.956;4.640;2023-09-12T12:27:05;15.43;;;8.40;;
20697;SDS011;10508;50.956;4.640;2023-09-12T12:29:32;15.52;;;8.85;;
20697;SDS011;10508;50.956;4.640;2023-09-12T12:31:59;17.85;;;9.25;;
20697;SDS011;10508;50.956;4.640;2023-09-12T12:34:30;21.10;;;9.88;;
20697;SDS011;10508;50.956;4.640;2023-09-12T12:36:56;16.17;;;7.90;;
20697;SDS011;10508;50.956;4.640;2023-09-12T12:39:22;18.80;;;9.75;;
20697;SDS011;10508;50.956;4.640;2023-09-12T12:41:48;23.35;;;9.40;;
20697;SDS011;10508;50.956;4.640;2023-09-12T12:44:17;16.67;;;8.48;;
20697;SDS011;10508;50.956;4.640;2023-09-12T12:46:50;14.93;;;9.20;;
20697;SDS011;10508;50.956;4.640;2023-09-12T12:49:17;11.52;;;7.10;;
20697;SDS011;10508;50.956;4.640;2023-09-12T12:51:47;13.38;;;8.07;;
20697;SDS011;10508;50.956;4.640;2023-09-12T12:54:13;13.68;;;8.48;;
20697;SDS011;10508;50.956;4.640;2023-09-12T12:56:40;12.55;;;6.82;;
20697;SDS011;10508;50.956;4.640;2023-09-12T12:59:06;15.35;;;8.32;;
20697;SDS011;10508;50.956;4.640;2023-09-12T13:01:37;15.80;;;8.13;;
20697;SDS011;10508;50.956;4.640;2023-09-12T13:04:04;15.38;;;7.93;;
20697;SDS011;10508;50.956;4.640;2023-09-12T13:06:31;11.93;;;7.15;;
20697;SDS011;10508;50.956;4.640;2023-09-12T13:09:00;13.43;;;6.50;;
20697;SDS011;10508;50.956;4.640;2023-09-12T13:11:29;11.70;;;7.03;;
20697;SDS011;10508;50.956;4.640;2023-09-12T13:13:56;15.13;;;6.53;;
20697;SDS011;10508;50.956;4.640;2023-09-12T13:16:21;12.70;;;6.65;;
20697;SDS011;10508;50.956;4.640;2023-09-12T13:18:47;11.15;;;6.65;;
20697;SDS011;10508;50.956;4.640;2023-09-12T13:21:13;12.65;;;6.88;;
20697;SDS011;10508;50.956;4.640;2023-09-12T13:23:39;11.52;;;6.75;;
20697;SDS011;10508;50.956;4.640;2023-09-12T13:26:06;10.23;;;6.07;;
20697;SDS011;10508;50.956;4.640;2023-09-12T13:28:32;14.68;;;7.93;;
20697;SDS011;10508;50.956;4.640;2023-09-12T13:30:58;12.10;;;5.57;;
20697;SDS011;10508;50.956;4.640;2023-09-12T13:33:24;11.32;;;5.90;;
20697;SDS011;10508;50.956;4.640;2023-09-12T13:35:50;11.85;;;5.55;;
20697;SDS011;10508;50.956;4.640;2023-09-12T13:38:16;9.98;;;6.20;;
20697;SDS011;10508;50.956;4.640;2023-09-12T13:40:44;9.18;;;5.70;;
20697;SDS011;10508;50.956;4.640;2023-09-12T13:43:11;12.07;;;7.10;;
20697;SDS011;10508;50.956;4.640;2023-09-12T13:45:38;11.35;;;5.82;;
20697;SDS011;10508;50.956;4.640;2023-09-12T13:48:04;12.32;;;6.65;;
20697;SDS011;10508;50.956;4.640;2023-09-12T13:50:30;12.85;;;6.38;;
20697;SDS011;10508;50.956;4.640;2023-09-12T13:52:57;10.90;;;5.93;;
20697;SDS011;10508;50.956;4.640;2023-09-12T13:55:31;11.80;;;5.85;;
20697;SDS011;10508;50.956;4.640;2023-09-12T13:57:59;9.38;;;5.88;;
20697;SDS011;10508;50.956;4.640;2023-09-12T14:00:26;12.30;;;6.47;;
20697;SDS011;10508;50.956;4.640;2023-09-12T14:02:51;8.70;;;5.57;;
20697;SDS011;10508;50.956;4.640;2023-09-12T14:05:17;11.50;;;5.63;;
20697;SDS011;10508;50.956;4.640;2023-09-12T14:07:43;12.07;;;5.72;;
20697;SDS011;10508;50.956;4.640;2023-09-12T14:10:09;10.23;;;5.15;;
20697;SDS011;10508;50.956;4.640;2023-09-12T14:12:34;8.88;;;5.70;;
20697;SDS011;10508;50.956;4.640;2023-09-12T14:15:00;12.23;;;6.15;;
20697;SDS011;10508;50.956;4.640;2023-09-12T14:17:28;11.75;;;5.05;;
20697;SDS011;10508;50.956;4.640;2023-09-12T14:19:54;9.60;;;5.40;;
20697;SDS011;10508;50.956;4.640;2023-09-12T14:22:20;7.57;;;5.25;;
20697;SDS011;10508;50.956;4.640;2023-09-12T14:24:49;9.90;;;5.38;;
20697;SDS011;10508;50.956;4.640;2023-09-12T14:27:14;13.63;;;5.38;;
20697;SDS011;10508;50.956;4.640;2023-09-12T14:29:40;11.43;;;5.65;;
20697;SDS011;10508;50.956;4.640;2023-09-12T14:32:10;11.07;;;5.53;;
20697;SDS011;10508;50.956;4.640;2023-09-12T14:34:36;11.02;;;5.75;;
20697;SDS011;10508;50.956;4.640;2023-09-12T14:37:02;11.18;;;6.30;;
20697;SDS011;10508;50.956;4.640;2023-09-12T14:39:27;9.32;;;6.03;;
20697;SDS011;10508;50.956;4.640;2023-09-12T14:41:53;13.20;;;6.55;;
20697;SDS011;10508;50.956;4.640;2023-09-12T14:44:20;14.07;;;5.72;;
20697;SDS011;10508;50.956;4.640;2023-09-12T14:46:46;11.73;;;5.65;;
20697;SDS011;10508;50.956;4.640;2023-09-12T14:49:12;13.38;;;6.10;;
20697;SDS011;10508;50.956;4.640;2023-09-12T14:51:38;15.60;;;6.45;;
20697;SDS011;10508;50.956;4.640;2023-09-12T14:54:05;12.98;;;6.32;;